sensor_id;sensor_type;location;lat;lon;timestamp;pressure;altitude;pressure_sealevel;temperature;humidity
45991;BME280;31721;41.740;-88.000;2023-08-24T00:00:27;98548.56;;;35.00;45.96
45991;BME280;31721;41.740;-88.000;2023-08-24T00:02:55;98544.59;;;34.80;46.10
45991;BME280;31721;41.740;-88.000;2023-08-24T00:05:23;98543.21;;;34.80;46.33
45991;BME280;31721;41.740;-88.000;2023-08-24T00:07:50;98548.81;;;34.70;46.53
45991;BME280;31721;41.740;-88.000;2023-08-24T00:10:19;98543.41;;;34.85;46.22
45991;BME280;31721;41.740;-88.000;2023-08-24T00:12:47;98541.13;;;34.67;46.34
45991;BME280;31721;41.740;-88.000;2023-08-24T00:15:15;98541.45;;;34.65;46.92
45991;BME280;31721;41.740;-88.000;2023-08-24T00:17:43;98538.54;;;34.65;46.70
45991;BME280;31721;41.740;-88.000;2023-08-24T00:20:11;98538.37;;;34.67;47.31
45991;BME280;31721;41.740;-88.000;2023-08-24T00:22:40;98537.25;;;34.71;47.43
45991;BME280;31721;41.740;-88.000;2023-08-24T00:25:08;98535.16;;;34.76;47.65
45991;BME280;31721;41.740;-88.000;2023-08-24T00:27:37;98534.01;;;34.77;47.80
45991;BME280;31721;41.740;-88.000;2023-08-24T00:30:07;98534.10;;;34.42;48.31
45991;BME280;31721;41.740;-88.000;2023-08-24T00:32:35;98538.14;;;34.52;48.57
45991;BME280;31721;41.740;-88.000;2023-08-24T00:35:05;98534.74;;;34.75;48.68
45991;BME280;31721;41.740;-88.000;2023-08-24T00:37:33;98537.04;;;34.48;49.14
45991;BME280;31721;41.740;-88.000;2023-08-24T00:40:03;98538.43;;;34.43;49.00
45991;BME280;31721;41.740;-88.000;2023-08-24T00:42:31;98536.53;;;34.38;49.34
45991;BME280;31721;41.740;-88.000;2023-08-24T00:44:59;98535.11;;;34.31;49.26
45991;BME280;31721;41.740;-88.000;2023-08-24T00:47:27;98539.92;;;34.24;49.43
45991;BME280;31721;41.740;-88.000;2023-08-24T00:49:55;98538.76;;;34.16;49.76
45991;BME280;31721;41.740;-88.000;2023-08-24T00:52:25;98535.15;;;34.03;50.09
45991;BME280;31721;41.740;-88.000;2023-08-24T00:54:53;98536.16;;;34.27;49.96
45991;BME280;31721;41.740;-88.000;2023-08-24T00:57:23;98540.51;;;33.92;50.64
45991;BME280;31721;41.740;-88.000;2023-08-24T00:59:51;98538.31;;;34.14;50.49
45991;BME280;31721;41.740;-88.000;2023-08-24T01:02:19;98537.91;;;33.65;51.01
45991;BME280;31721;41.740;-88.000;2023-08-24T01:04:47;98537.85;;;33.62;51.37
45991;BME280;31721;41.740;-88.000;2023-08-24T01:07:16;98538.21;;;33.58;51.21
45991;BME280;31721;41.740;-88.000;2023-08-24T01:09:45;98541.32;;;33.79;51.19
45991;BME280;31721;41.740;-88.000;2023-08-24T01:12:20;98540.87;;;33.91;51.52
45991;BME280;31721;41.740;-88.000;2023-08-24T01:14:57;98542.24;;;33.72;51.64
45991;BME280;31721;41.740;-88.000;2023-08-24T01:17:31;98541.96;;;33.67;51.99
45991;BME280;31721;41.740;-88.000;2023-08-24T01:20:04;98544.78;;;33.70;52.01
45991;BME280;31721;41.740;-88.000;2023-08-24T01:22:37;98549.41;;;33.42;52.37
45991;BME280;31721;41.740;-88.000;2023-08-24T01:25:14;98552.38;;;33.29;52.55
45991;BME280;31721;41.740;-88.000;2023-08-24T01:27:44;98549.56;;;33.55;53.06
45991;BME280;31721;41.740;-88.000;2023-08-24T01:30:13;98551.99;;;33.48;52.90
45991;BME280;31721;41.740;-88.000;2023-08-24T01:32:41;98552.93;;;33.22;52.85
45991;BME280;31721;41.740;-88.000;2023-08-24T01:35:10;98556.15;;;33.06;53.30
45991;BME280;31721;41.740;-88.000;2023-08-24T01:37:38;98554.60;;;32.97;53.52
45991;BME280;31721;41.740;-88.000;2023-08-24T01:40:10;98556.21;;;32.95;53.65
45991;BME280;31721;41.740;-88.000;2023-08-24T01:42:45;98560.57;;;32.82;53.75
45991;BME280;31721;41.740;-88.000;2023-08-24T01:45:17;98560.28;;;32.97;53.66
45991;BME280;31721;41.740;-88.000;2023-08-24T01:47:48;98562.02;;;32.80;53.64
45991;BME280;31721;41.740;-88.000;2023-08-24T01:50:18;98561.63;;;33.00;53.63
45991;BME280;31721;41.740;-88.000;2023-08-24T01:52:47;98560.17;;;33.14;53.47
45991;BME280;31721;41.740;-88.000;2023-08-24T01:55:19;98557.71;;;33.23;53.41
45991;BME280;31721;41.740;-88.000;2023-08-24T01:57:49;98553.02;;;33.25;53.64
45991;BME280;31721;41.740;-88.000;2023-08-24T02:00:17;98559.61;;;32.95;53.69
45991;BME280;31721;41.740;-88.000;2023-08-24T02:02:46;98563.61;;;32.81;53.87
45991;BME280;31721;41.740;-88.000;2023-08-24T02:05:15;98565.64;;;32.46;54.28
45991;BME280;31721;41.740;-88.000;2023-08-24T02:07:44;98568.58;;;32.69;54.30
45991;BME280;31721;41.740;-88.000;2023-08-24T02:10:13;98570.29;;;32.66;54.28
45991;BME280;31721;41.740;-88.000;2023-08-24T02:12:41;98574.00;;;32.78;54.53
45991;BME280;31721;41.740;-88.000;2023-08-24T02:15:10;98573.02;;;32.49;54.50
45991;BME280;31721;41.740;-88.000;2023-08-24T02:17:38;98571.36;;;32.38;54.53
45991;BME280;31721;41.740;-88.000;2023-08-24T02:20:07;98571.81;;;32.55;54.77
45991;BME280;31721;41.740;-88.000;2023-08-24T02:22:37;98572.53;;;32.60;54.78
45991;BME280;31721;41.740;-88.000;2023-08-24T02:25:06;98577.09;;;32.60;54.72
45991;BME280;31721;41.740;-88.000;2023-08-24T02:27:35;98576.96;;;32.64;54.89
45991;BME280;31721;41.740;-88.000;2023-08-24T02:30:03;98575.65;;;32.47;54.80
45991;BME280;31721;41.740;-88.000;2023-08-24T02:32:31;98578.11;;;32.47;54.93
45991;BME280;31721;41.740;-88.000;2023-08-24T02:34:59;98585.25;;;32.59;55.05
45991;BME280;31721;41.740;-88.000;2023-08-24T02:37:28;98582.64;;;32.48;54.96
45991;BME280;31721;41.740;-88.000;2023-08-24T02:39:56;98581.27;;;32.46;55.51
45991;BME280;31721;41.740;-88.000;2023-08-24T02:42:24;98578.78;;;32.43;55.53
45991;BME280;31721;41.740;-88.000;2023-08-24T02:44:52;98576.05;;;32.47;55.51
45991;BME280;31721;41.740;-88.000;2023-08-24T02:47:21;98575.09;;;32.57;55.52
45991;BME280;31721;41.740;-88.000;2023-08-24T02:49:49;98573.77;;;32.58;55.64
45991;BME280;31721;41.740;-88.000;2023-08-24T02:52:16;98567.40;;;32.47;55.75
45991;BME280;31721;41.740;-88.000;2023-08-24T02:54:44;98566.69;;;32.39;55.62
45991;BME280;31721;41.740;-88.000;2023-08-24T02:57:12;98566.75;;;32.32;56.16
45991;BME280;31721;41.740;-88.000;2023-08-24T02:59:40;98560.57;;;32.28;56.47
45991;BME280;31721;41.740;-88.000;2023-08-24T03:02:08;98555.33;;;32.24;56.76
45991;BME280;31721;41.740;-88.000;2023-08-24T03:04:36;98556.28;;;32.32;56.64
45991;BME280;31721;41.740;-88.000;2023-08-24T03:07:04;98557.78;;;32.15;56.81
45991;BME280;31721;41.740;-88.000;2023-08-24T03:09:31;98554.92;;;32.22;56.83
45991;BME280;31721;41.740;-88.000;2023-08-24T03:11:59;98554.33;;;32.22;57.07
45991;BME280;31721;41.740;-88.000;2023-08-24T03:14:27;98555.17;;;32.09;57.10
45991;BME280;31721;41.740;-88.000;2023-08-24T03:16:55;98551.16;;;31.97;57.16
45991;BME280;31721;41.740;-88.000;2023-08-24T03:19:23;98553.75;;;31.89;57.37
45991;BME280;31721;41.740;-88.000;2023-08-24T03:21:51;98550.86;;;31.82;57.23
45991;BME280;31721;41.740;-88.000;2023-08-24T03:24:19;98552.13;;;31.69;57.59
45991;BME280;31721;41.740;-88.000;2023-08-24T03:26:47;98550.03;;;31.77;57.64
45991;BME280;31721;41.740;-88.000;2023-08-24T03:29:15;98548.43;;;32.08;57.82
45991;BME280;31721;41.740;-88.000;2023-08-24T03:31:43;98552.46;;;31.53;58.05
45991;BME280;31721;41.740;-88.000;2023-08-24T03:34:10;98551.43;;;31.59;58.11
45991;BME280;31721;41.740;-88.000;2023-08-24T03:36:38;98553.20;;;31.45;58.30
45991;BME280;31721;41.740;-88.000;2023-08-24T03:39:06;98553.60;;;31.55;58.40
45991;BME280;31721;41.740;-88.000;2023-08-24T03:41:34;98555.25;;;31.53;58.14
45991;BME280;31721;41.740;-88.000;2023-08-24T03:44:02;98557.23;;;31.46;58.19
45991;BME280;31721;41.740;-88.000;2023-08-24T03:46:30;98557.13;;;31.35;58.36
45991;BME280;31721;41.740;-88.000;2023-08-24T03:48:58;98553.08;;;31.39;58.12
45991;BME280;31721;41.740;-88.000;2023-08-24T03:51:27;98551.86;;;31.55;58.20
45991;BME280;31721;41.740;-88.000;2023-08-24T03:53:55;98550.98;;;31.39;58.30
45991;BME280;31721;41.740;-88.000;2023-08-24T03:56:23;98545.55;;;31.52;57.97
45991;BME280;31721;41.740;-88.000;2023-08-24T03:58:51;98546.15;;;31.49;58.23
45991;BME280;31721;41.740;-88.000;2023-08-24T04:01:18;98543.83;;;31.26;58.39
45991;BME280;31721;41.740;-88.000;2023-08-24T04:03:46;98539.68;;;31.38;58.37
45991;BME280;31721;41.740;-88.000;2023-08-24T04:06:14;98539.94;;;31.17;58.46
45991;BME280;31721;41.740;-88.000;2023-08-24T04:08:41;98543.33;;;31.18;58.57
45991;BME280;31721;41.740;-88.000;2023-08-24T04:11:10;98539.25;;;31.22;58.26
45991;BME280;31721;41.740;-88.000;2023-08-24T04:13:37;98541.81;;;31.25;58.23
45991;BME280;31721;41.740;-88.000;2023-08-24T04:16:05;98543.46;;;31.14;58.26
45991;BME280;31721;41.740;-88.000;2023-08-24T04:18:34;98541.63;;;31.18;58.27
45991;BME280;31721;41.740;-88.000;2023-08-24T04:21:01;98547.58;;;31.03;58.38
45991;BME280;31721;41.740;-88.000;2023-08-24T04:23:29;98550.08;;;30.75;58.76
45991;BME280;31721;41.740;-88.000;2023-08-24T04:25:57;98544.37;;;30.81;58.65
45991;BME280;31721;41.740;-88.000;2023-08-24T04:28:24;98544.64;;;30.84;58.59
45991;BME280;31721;41.740;-88.000;2023-08-24T04:30:53;98539.34;;;31.12;58.27
45991;BME280;31721;41.740;-88.000;2023-08-24T04:33:21;98545.50;;;31.08;58.36
45991;BME280;31721;41.740;-88.000;2023-08-24T04:35:49;98544.92;;;31.04;58.56
45991;BME280;31721;41.740;-88.000;2023-08-24T04:38:18;98542.00;;;30.86;58.66
45991;BME280;31721;41.740;-88.000;2023-08-24T04:40:49;98541.30;;;30.90;58.50
45991;BME280;31721;41.740;-88.000;2023-08-24T04:43:17;98542.35;;;30.59;58.60
45991;BME280;31721;41.740;-88.000;2023-08-24T04:45:46;98539.53;;;30.61;58.69
45991;BME280;31721;41.740;-88.000;2023-08-24T04:48:14;98537.41;;;30.65;58.78
45991;BME280;31721;41.740;-88.000;2023-08-24T04:50:44;98534.76;;;30.63;58.67
45991;BME280;31721;41.740;-88.000;2023-08-24T04:53:13;98533.81;;;30.79;58.31
45991;BME280;31721;41.740;-88.000;2023-08-24T04:55:41;98532.03;;;30.70;58.42
45991;BME280;31721;41.740;-88.000;2023-08-24T04:58:09;98531.78;;;30.71;58.38
45991;BME280;31721;41.740;-88.000;2023-08-24T05:00:38;98532.44;;;30.77;58.33
45991;BME280;31721;41.740;-88.000;2023-08-24T05:03:07;98527.88;;;30.48;58.37
45991;BME280;31721;41.740;-88.000;2023-08-24T05:05:36;98529.46;;;30.73;58.14
45991;BME280;31721;41.740;-88.000;2023-08-24T05:08:05;98530.06;;;30.77;58.00
45991;BME280;31721;41.740;-88.000;2023-08-24T05:10:33;98529.54;;;30.70;58.03
45991;BME280;31721;41.740;-88.000;2023-08-24T05:13:01;98523.51;;;30.62;58.16
45991;BME280;31721;41.740;-88.000;2023-08-24T05:15:29;98521.77;;;30.58;58.09
45991;BME280;31721;41.740;-88.000;2023-08-24T05:17:57;98520.05;;;30.50;58.16
45991;BME280;31721;41.740;-88.000;2023-08-24T05:20:26;98518.27;;;30.42;58.15
45991;BME280;31721;41.740;-88.000;2023-08-24T05:22:54;98516.56;;;30.60;57.97
45991;BME280;31721;41.740;-88.000;2023-08-24T05:25:22;98518.10;;;30.70;57.80
45991;BME280;31721;41.740;-88.000;2023-08-24T05:27:50;98519.73;;;30.46;57.88
45991;BME280;31721;41.740;-88.000;2023-08-24T05:30:18;98525.81;;;30.45;58.17
45991;BME280;31721;41.740;-88.000;2023-08-24T05:32:45;98525.15;;;30.54;57.89
45991;BME280;31721;41.740;-88.000;2023-08-24T05:35:13;98524.37;;;30.43;57.82
45991;BME280;31721;41.740;-88.000;2023-08-24T05:37:41;98521.56;;;30.61;57.80
45991;BME280;31721;41.740;-88.000;2023-08-24T05:40:10;98520.05;;;30.53;57.96
45991;BME280;31721;41.740;-88.000;2023-08-24T05:42:39;98522.38;;;30.57;57.56
45991;BME280;31721;41.740;-88.000;2023-08-24T05:45:07;98521.98;;;30.66;57.68
45991;BME280;31721;41.740;-88.000;2023-08-24T05:47:35;98521.82;;;30.93;57.27
45991;BME280;31721;41.740;-88.000;2023-08-24T05:50:03;98524.54;;;30.83;57.39
45991;BME280;31721;41.740;-88.000;2023-08-24T05:52:31;98519.83;;;30.74;57.62
45991;BME280;31721;41.740;-88.000;2023-08-24T05:54:59;98522.33;;;30.50;57.87
45991;BME280;31721;41.740;-88.000;2023-08-24T05:57:26;98518.38;;;30.44;57.77
45991;BME280;31721;41.740;-88.000;2023-08-24T05:59:54;98521.84;;;30.48;57.91
45991;BME280;31721;41.740;-88.000;2023-08-24T06:02:22;98521.39;;;30.38;58.00
45991;BME280;31721;41.740;-88.000;2023-08-24T06:04:49;98514.73;;;30.22;58.12
45991;BME280;31721;41.740;-88.000;2023-08-24T06:07:17;98514.80;;;30.24;58.16
45991;BME280;31721;41.740;-88.000;2023-08-24T06:09:45;98515.61;;;30.33;58.27
45991;BME280;31721;41.740;-88.000;2023-08-24T06:12:12;98514.93;;;30.20;58.34
45991;BME280;31721;41.740;-88.000;2023-08-24T06:14:40;98511.51;;;30.44;58.10
45991;BME280;31721;41.740;-88.000;2023-08-24T06:17:08;98506.45;;;30.39;58.23
45991;BME280;31721;41.740;-88.000;2023-08-24T06:19:36;98506.04;;;30.35;58.09
45991;BME280;31721;41.740;-88.000;2023-08-24T06:22:04;98506.30;;;30.36;58.29
45991;BME280;31721;41.740;-88.000;2023-08-24T06:24:32;98511.00;;;30.24;58.41
45991;BME280;31721;41.740;-88.000;2023-08-24T06:26:59;98509.91;;;30.20;58.63
45991;BME280;31721;41.740;-88.000;2023-08-24T06:29:29;98510.47;;;30.31;58.47
45991;BME280;31721;41.740;-88.000;2023-08-24T06:31:57;98513.05;;;30.00;58.72
45991;BME280;31721;41.740;-88.000;2023-08-24T06:34:24;98509.07;;;30.08;58.76
45991;BME280;31721;41.740;-88.000;2023-08-24T06:36:53;98511.17;;;30.23;58.67
45991;BME280;31721;41.740;-88.000;2023-08-24T06:39:20;98514.10;;;30.07;58.79
45991;BME280;31721;41.740;-88.000;2023-08-24T06:41:48;98516.22;;;30.21;58.79
45991;BME280;31721;41.740;-88.000;2023-08-24T06:44:17;98520.24;;;30.11;58.75
45991;BME280;31721;41.740;-88.000;2023-08-24T06:46:44;98525.35;;;30.16;58.81
45991;BME280;31721;41.740;-88.000;2023-08-24T06:49:12;98523.17;;;30.02;58.92
45991;BME280;31721;41.740;-88.000;2023-08-24T06:51:40;98523.42;;;30.22;58.79
45991;BME280;31721;41.740;-88.000;2023-08-24T06:54:08;98523.20;;;30.07;58.92
45991;BME280;31721;41.740;-88.000;2023-08-24T06:56:37;98521.27;;;30.23;58.81
45991;BME280;31721;41.740;-88.000;2023-08-24T06:59:05;98525.74;;;30.03;58.95
45991;BME280;31721;41.740;-88.000;2023-08-24T07:01:32;98533.44;;;29.81;58.99
45991;BME280;31721;41.740;-88.000;2023-08-24T07:04:00;98528.10;;;30.02;59.08
45991;BME280;31721;41.740;-88.000;2023-08-24T07:06:28;98532.16;;;29.83;59.29
45991;BME280;31721;41.740;-88.000;2023-08-24T07:08:56;98534.31;;;29.71;59.43
45991;BME280;31721;41.740;-88.000;2023-08-24T07:11:23;98530.85;;;29.69;59.48
45991;BME280;31721;41.740;-88.000;2023-08-24T07:13:51;98531.22;;;29.75;59.61
45991;BME280;31721;41.740;-88.000;2023-08-24T07:16:19;98528.45;;;29.82;59.19
45991;BME280;31721;41.740;-88.000;2023-08-24T07:18:46;98531.06;;;29.86;59.28
45991;BME280;31721;41.740;-88.000;2023-08-24T07:21:15;98528.70;;;29.97;59.36
45991;BME280;31721;41.740;-88.000;2023-08-24T07:23:43;98528.07;;;30.13;59.32
45991;BME280;31721;41.740;-88.000;2023-08-24T07:26:10;98528.75;;;29.87;59.57
45991;BME280;31721;41.740;-88.000;2023-08-24T07:28:38;98527.74;;;29.90;59.61
45991;BME280;31721;41.740;-88.000;2023-08-24T07:31:09;98531.93;;;30.01;59.49
45991;BME280;31721;41.740;-88.000;2023-08-24T07:33:37;98536.61;;;30.06;59.56
45991;BME280;31721;41.740;-88.000;2023-08-24T07:36:05;98538.60;;;29.78;59.85
45991;BME280;31721;41.740;-88.000;2023-08-24T07:38:33;98537.53;;;29.56;60.02
45991;BME280;31721;41.740;-88.000;2023-08-24T07:41:01;98536.59;;;29.75;59.98
45991;BME280;31721;41.740;-88.000;2023-08-24T07:43:29;98537.96;;;29.77;59.91
45991;BME280;31721;41.740;-88.000;2023-08-24T07:45:57;98534.28;;;29.54;59.99
45991;BME280;31721;41.740;-88.000;2023-08-24T07:48:24;98529.11;;;29.45;60.13
45991;BME280;31721;41.740;-88.000;2023-08-24T07:50:52;98527.76;;;29.47;60.46
45991;BME280;31721;41.740;-88.000;2023-08-24T07:53:19;98523.49;;;29.69;60.26
45991;BME280;31721;41.740;-88.000;2023-08-24T07:55:47;98520.19;;;29.62;60.30
45991;BME280;31721;41.740;-88.000;2023-08-24T07:58:15;98517.38;;;29.41;60.31
45991;BME280;31721;41.740;-88.000;2023-08-24T08:00:43;98515.55;;;29.54;60.53
45991;BME280;31721;41.740;-88.000;2023-08-24T08:03:11;98510.64;;;29.51;60.53
45991;BME280;31721;41.740;-88.000;2023-08-24T08:05:39;98510.62;;;29.57;60.54
45991;BME280;31721;41.740;-88.000;2023-08-24T08:08:07;98510.63;;;29.44;60.75
45991;BME280;31721;41.740;-88.000;2023-08-24T08:10:35;98508.77;;;29.38;60.47
45991;BME280;31721;41.740;-88.000;2023-08-24T08:13:03;98508.47;;;29.34;60.82
45991;BME280;31721;41.740;-88.000;2023-08-24T08:15:31;98504.85;;;29.29;60.86
45991;BME280;31721;41.740;-88.000;2023-08-24T08:17:59;98504.96;;;29.42;60.90
45991;BME280;31721;41.740;-88.000;2023-08-24T08:20:26;98504.91;;;29.22;60.92
45991;BME280;31721;41.740;-88.000;2023-08-24T08:22:54;98511.29;;;29.09;61.43
45991;BME280;31721;41.740;-88.000;2023-08-24T08:25:21;98507.97;;;29.22;61.39
45991;BME280;31721;41.740;-88.000;2023-08-24T08:27:50;98506.69;;;29.30;61.42
45991;BME280;31721;41.740;-88.000;2023-08-24T08:30:18;98507.96;;;29.15;61.47
45991;BME280;31721;41.740;-88.000;2023-08-24T08:32:45;98506.98;;;28.75;61.49
45991;BME280;31721;41.740;-88.000;2023-08-24T08:35:13;98509.30;;;28.91;61.85
45991;BME280;31721;41.740;-88.000;2023-08-24T08:37:41;98505.75;;;28.89;61.80
45991;BME280;31721;41.740;-88.000;2023-08-24T08:40:11;98509.71;;;28.78;62.00
45991;BME280;31721;41.740;-88.000;2023-08-24T08:42:39;98511.48;;;28.81;61.83
45991;BME280;31721;41.740;-88.000;2023-08-24T08:45:10;98503.58;;;28.92;61.90
45991;BME280;31721;41.740;-88.000;2023-08-24T08:47:38;98505.01;;;28.92;61.74
45991;BME280;31721;41.740;-88.000;2023-08-24T08:50:07;98497.88;;;29.19;61.79
45991;BME280;31721;41.740;-88.000;2023-08-24T08:52:35;98499.34;;;28.90;61.76
45991;BME280;31721;41.740;-88.000;2023-08-24T08:55:03;98495.34;;;29.04;61.87
45991;BME280;31721;41.740;-88.000;2023-08-24T08:57:31;98490.73;;;28.80;61.85
45991;BME280;31721;41.740;-88.000;2023-08-24T09:00:00;98490.07;;;28.91;62.19
45991;BME280;31721;41.740;-88.000;2023-08-24T09:02:29;98488.18;;;28.80;62.02
45991;BME280;31721;41.740;-88.000;2023-08-24T09:04:58;98487.31;;;28.86;62.33
45991;BME280;31721;41.740;-88.000;2023-08-24T09:07:25;98492.69;;;28.98;62.29
45991;BME280;31721;41.740;-88.000;2023-08-24T09:09:54;98496.80;;;28.64;62.54
45991;BME280;31721;41.740;-88.000;2023-08-24T09:12:21;98492.49;;;28.43;62.72
45991;BME280;31721;41.740;-88.000;2023-08-24T09:14:49;98489.39;;;28.80;62.65
45991;BME280;31721;41.740;-88.000;2023-08-24T09:17:21;98492.05;;;28.61;62.69
45991;BME280;31721;41.740;-88.000;2023-08-24T09:19:50;98497.04;;;28.46;63.19
45991;BME280;31721;41.740;-88.000;2023-08-24T09:22:18;98498.88;;;28.24;62.99
45991;BME280;31721;41.740;-88.000;2023-08-24T09:24:49;98499.63;;;28.22;63.21
45991;BME280;31721;41.740;-88.000;2023-08-24T09:27:18;98502.41;;;28.23;63.54
45991;BME280;31721;41.740;-88.000;2023-08-24T09:29:48;98498.55;;;28.35;63.56
45991;BME280;31721;41.740;-88.000;2023-08-24T09:32:21;98502.87;;;28.59;63.43
45991;BME280;31721;41.740;-88.000;2023-08-24T09:34:49;98505.40;;;28.47;63.30
45991;BME280;31721;41.740;-88.000;2023-08-24T09:37:17;98507.21;;;28.58;63.35
45991;BME280;31721;41.740;-88.000;2023-08-24T09:39:45;98513.30;;;28.52;63.37
45991;BME280;31721;41.740;-88.000;2023-08-24T09:42:13;98517.90;;;28.15;63.62
45991;BME280;31721;41.740;-88.000;2023-08-24T09:44:44;98524.02;;;28.23;63.73
45991;BME280;31721;41.740;-88.000;2023-08-24T09:47:12;98525.53;;;28.20;63.61
45991;BME280;31721;41.740;-88.000;2023-08-24T09:49:40;98530.56;;;28.17;63.81
45991;BME280;31721;41.740;-88.000;2023-08-24T09:52:08;98531.82;;;28.10;63.96
45991;BME280;31721;41.740;-88.000;2023-08-24T09:54:37;98529.38;;;28.20;63.76
45991;BME280;31721;41.740;-88.000;2023-08-24T09:57:06;98526.52;;;28.15;63.97
45991;BME280;31721;41.740;-88.000;2023-08-24T09:59:35;98530.23;;;28.36;63.84
45991;BME280;31721;41.740;-88.000;2023-08-24T10:02:16;98534.45;;;28.19;63.86
45991;BME280;31721;41.740;-88.000;2023-08-24T10:04:47;98538.78;;;28.37;63.76
45991;BME280;31721;41.740;-88.000;2023-08-24T10:07:20;98547.62;;;28.09;63.70
45991;BME280;31721;41.740;-88.000;2023-08-24T10:10:00;98552.12;;;27.98;64.27
45991;BME280;31721;41.740;-88.000;2023-08-24T10:12:32;98557.28;;;28.00;64.08
45991;BME280;31721;41.740;-88.000;2023-08-24T10:15:04;98560.43;;;27.96;64.14
45991;BME280;31721;41.740;-88.000;2023-08-24T10:17:33;98562.84;;;27.96;64.20
45991;BME280;31721;41.740;-88.000;2023-08-24T10:20:01;98558.46;;;28.14;64.33
45991;BME280;31721;41.740;-88.000;2023-08-24T10:22:29;98559.33;;;28.19;64.22
45991;BME280;31721;41.740;-88.000;2023-08-24T10:24:58;98558.21;;;28.19;64.31
45991;BME280;31721;41.740;-88.000;2023-08-24T10:27:27;98557.96;;;28.18;64.45
45991;BME280;31721;41.740;-88.000;2023-08-24T10:29:55;98562.11;;;28.03;64.57
45991;BME280;31721;41.740;-88.000;2023-08-24T10:32:24;98565.63;;;28.18;64.58
45991;BME280;31721;41.740;-88.000;2023-08-24T10:34:53;98566.01;;;28.06;64.83
45991;BME280;31721;41.740;-88.000;2023-08-24T10:37:26;98570.54;;;27.97;65.03
45991;BME280;31721;41.740;-88.000;2023-08-24T10:39:55;98570.10;;;27.75;65.28
45991;BME280;31721;41.740;-88.000;2023-08-24T10:42:23;98571.07;;;27.82;64.99
45991;BME280;31721;41.740;-88.000;2023-08-24T10:44:50;98566.86;;;27.80;65.40
45991;BME280;31721;41.740;-88.000;2023-08-24T10:47:20;98565.57;;;27.88;65.37
45991;BME280;31721;41.740;-88.000;2023-08-24T10:49:58;98568.11;;;27.82;65.45
45991;BME280;31721;41.740;-88.000;2023-08-24T10:52:31;98569.07;;;27.84;65.53
45991;BME280;31721;41.740;-88.000;2023-08-24T10:55:01;98569.09;;;27.59;65.61
45991;BME280;31721;41.740;-88.000;2023-08-24T10:57:36;98574.94;;;27.65;65.74
45991;BME280;31721;41.740;-88.000;2023-08-24T11:00:07;98574.21;;;27.62;65.62
45991;BME280;31721;41.740;-88.000;2023-08-24T11:02:44;98581.41;;;27.50;65.88
45991;BME280;31721;41.740;-88.000;2023-08-24T11:05:18;98585.52;;;27.36;66.05
45991;BME280;31721;41.740;-88.000;2023-08-24T11:07:51;98590.02;;;27.39;66.29
45991;BME280;31721;41.740;-88.000;2023-08-24T11:10:20;98594.60;;;27.50;65.95
45991;BME280;31721;41.740;-88.000;2023-08-24T11:13:20;98597.18;;;27.38;65.89
45991;BME280;31721;41.740;-88.000;2023-08-24T11:15:49;98601.03;;;27.48;66.25
45991;BME280;31721;41.740;-88.000;2023-08-24T11:18:22;98606.15;;;27.26;66.35
45991;BME280;31721;41.740;-88.000;2023-08-24T11:20:52;98607.97;;;27.30;66.27
45991;BME280;31721;41.740;-88.000;2023-08-24T11:23:22;98609.99;;;27.18;66.32
45991;BME280;31721;41.740;-88.000;2023-08-24T11:25:51;98613.36;;;27.22;66.75
45991;BME280;31721;41.740;-88.000;2023-08-24T11:28:20;98613.22;;;27.13;66.52
45991;BME280;31721;41.740;-88.000;2023-08-24T11:30:49;98611.17;;;26.97;66.71
45991;BME280;31721;41.740;-88.000;2023-08-24T11:33:28;98614.72;;;27.04;66.70
45991;BME280;31721;41.740;-88.000;2023-08-24T11:35:57;98616.98;;;26.99;66.88
45991;BME280;31721;41.740;-88.000;2023-08-24T11:38:26;98616.73;;;27.08;66.95
45991;BME280;31721;41.740;-88.000;2023-08-24T11:41:10;98612.89;;;27.00;67.06
45991;BME280;31721;41.740;-88.000;2023-08-24T11:43:39;98613.00;;;27.22;66.96
45991;BME280;31721;41.740;-88.000;2023-08-24T11:46:07;98613.72;;;27.19;66.85
45991;BME280;31721;41.740;-88.000;2023-08-24T11:48:35;98614.64;;;27.15;66.71
45991;BME280;31721;41.740;-88.000;2023-08-24T11:51:04;98616.83;;;27.02;66.87
45991;BME280;31721;41.740;-88.000;2023-08-24T11:53:37;98616.74;;;27.23;66.74
45991;BME280;31721;41.740;-88.000;2023-08-24T11:56:05;98616.50;;;27.39;66.48
45991;BME280;31721;41.740;-88.000;2023-08-24T11:58:32;98616.00;;;27.27;66.71
45991;BME280;31721;41.740;-88.000;2023-08-24T12:01:00;98612.52;;;27.30;66.57
45991;BME280;31721;41.740;-88.000;2023-08-24T12:03:30;98612.26;;;27.38;66.59
45991;BME280;31721;41.740;-88.000;2023-08-24T12:05:59;98611.82;;;27.38;66.63
45991;BME280;31721;41.740;-88.000;2023-08-24T12:08:27;98616.98;;;27.38;66.60
45991;BME280;31721;41.740;-88.000;2023-08-24T12:10:55;98621.92;;;27.47;66.44
45991;BME280;31721;41.740;-88.000;2023-08-24T12:13:23;98621.45;;;27.40;66.25
45991;BME280;31721;41.740;-88.000;2023-08-24T12:15:53;98626.53;;;27.66;65.97
45991;BME280;31721;41.740;-88.000;2023-08-24T12:18:20;98625.72;;;27.79;65.64
45991;BME280;31721;41.740;-88.000;2023-08-24T12:20:48;98626.84;;;27.68;65.77
45991;BME280;31721;41.740;-88.000;2023-08-24T12:23:16;98626.14;;;27.74;65.85
45991;BME280;31721;41.740;-88.000;2023-08-24T12:25:44;98626.77;;;27.70;65.56
45991;BME280;31721;41.740;-88.000;2023-08-24T12:28:13;98625.22;;;27.79;65.45
45991;BME280;31721;41.740;-88.000;2023-08-24T12:30:52;98623.63;;;27.68;65.54
45991;BME280;31721;41.740;-88.000;2023-08-24T12:33:28;98624.17;;;27.87;65.56
45991;BME280;31721;41.740;-88.000;2023-08-24T12:35:57;98623.67;;;28.02;65.41
45991;BME280;31721;41.740;-88.000;2023-08-24T12:38:26;98617.00;;;28.30;64.86
45991;BME280;31721;41.740;-88.000;2023-08-24T12:40:54;98620.55;;;28.18;64.90
45991;BME280;31721;41.740;-88.000;2023-08-24T12:43:21;98618.56;;;27.96;64.93
45991;BME280;31721;41.740;-88.000;2023-08-24T12:45:50;98619.36;;;28.11;65.03
45991;BME280;31721;41.740;-88.000;2023-08-24T12:48:18;98616.33;;;28.27;64.52